Thunder radar more information blitzortung!


Rain radar more information rain snow radar


Visit our other weather sites:

Template documentation
and downloads

And another site



No particular awareness of the weather is required.    There are no Weather-warnings

Weather Underground History page Text

Daily Summary for September 24, 2018 Units:  Metric    English   Both
« Previous Day
Next Day »
Daily Weekly Monthly Yearly Custom
  Current: High: Low: Average:
Temperature: -3 °C -17.8 °C -7.2 °C -5.9 °C
Dew Point: -7.4 °C -17.8 °C -8.7 °C -8.1 °C
Humidity: 62 % Humidity % 59 % 78 %
Wind Speed: 11.9 km/h 0 km/h 0 km/h 4.7 km/h
Wind Gust: 6.3 km/h 0 km/h - -
Wind:ESE - - SSW
Pressure: 34601.5 hPa 0 hPa 34500 hPa -
Precipitation: 0 mm      
Historical Graphs
 
 
Tabular Data for September 24, 2018
Time Temperature Dew Point Pressure Wind Wind Speed Wind Gust Humidity Rainfall Rate (Hourly)
-17.8 °C -17.8 °C 0 hPa Calm     Humidity % 0 mm
00:04 -5.6 °C -8.2 °C 34601.5 hPa Calm     74 % 0 mm
00:09 -5.6 °C -8.2 °C 34601.5 hPa Calm     75 % 0 mm
00:14 -5.6 °C -8.2 °C 34601.5 hPa NNW 3.1 km/h   75 % 0 mm
00:19 -5.7 °C -8.1 °C 34601.5 hPa Calm     76 % 0 mm
00:24 -5.7 °C -8.1 °C 34601.5 hPa Calm     76 % 0 mm
00:29 -5.7 °C -8.2 °C 34601.5 hPa WNW 3.7 km/h   76 % 0 mm
00:34 -5.8 °C -8.2 °C 34601.5 hPa SW 6 km/h 3.1 km/h 76 % 0 mm
00:39 -5.8 °C -8.1 °C 34601.5 hPa SW 4.2 km/h 3.1 km/h 77 % 0 mm
00:44 -5.8 °C -8.2 °C 34601.5 hPa WSW 6 km/h 5.1 km/h 76 % 0 mm
00:49 -5.8 °C -8.2 °C 34601.5 hPa WSW 3.1 km/h 3.7 km/h 77 % 0 mm
00:54 -5.8 °C -8.1 °C 34601.5 hPa Calm     78 % 0 mm
00:59 -5.9 °C -8.1 °C 34601.5 hPa WSW 6 km/h 3.7 km/h 78 % 0 mm
01:04 -5.9 °C -8.2 °C 34567.7 hPa SW 6 km/h 4.2 km/h 78 % 0 mm
01:09 -6 °C -8.1 °C 34567.7 hPa SW 3.1 km/h 3.1 km/h 79 % 0 mm
01:14 -6 °C -8.1 °C 34567.7 hPa Calm     79 % 0 mm
01:16 -6 °C -8 °C 34567.7 hPa Calm     80 % 0 mm
01:24 -6 °C -8 °C 34567.7 hPa WSW 6 km/h 3.7 km/h 80 % 0 mm
01:29 -6.1 °C -8.1 °C 34567.7 hPa WSW 3.1 km/h 3.1 km/h 80 % 0 mm
01:34 -6.1 °C -8.1 °C 34533.8 hPa SW 3.7 km/h   80 % 0 mm
01:39 -6.1 °C -8.1 °C 34533.8 hPa SW 6 km/h 4.2 km/h 80 % 0 mm
01:44 -6.1 °C -8 °C 34533.8 hPa WSW 3.1 km/h 4.2 km/h 81 % 0 mm
01:49 -6.1 °C -8 °C 34533.8 hPa WSW 6 km/h 2.3 km/h 81 % 0 mm
01:54 -6.1 °C -7.9 °C 34533.8 hPa NNW 3.7 km/h   82 % 0 mm
01:59 -6.1 °C -7.9 °C 34533.8 hPa NNE 3.7 km/h 2.3 km/h 82 % 0 mm
02:04 -6.2 °C -7.8 °C 34533.8 hPa NE 3.7 km/h 2.3 km/h 83 % 0 mm
02:09 -6.2 °C -8 °C 34533.8 hPa NE 6 km/h 4.2 km/h 82 % 0 mm
02:14 -6.3 °C -7.9 °C 34533.8 hPa NNE 6 km/h 3.1 km/h 83 % 0 mm
02:19 -6.3 °C -8 °C 34533.8 hPa NNE 4.2 km/h 3.1 km/h 83 % 0 mm
02:24 -6.3 °C -8 °C 34533.8 hPa Calm     83 % 0 mm
02:29 -6.4 °C -8.1 °C 34533.8 hPa WNW 3.1 km/h   83 % 0 mm
02:34 -6.4 °C -8.1 °C 34533.8 hPa Calm     83 % 0 mm
02:39 -6.4 °C -8.1 °C 34533.8 hPa WNW 3.1 km/h 3.7 km/h 83 % 0 mm
02:44 -6.5 °C -8.2 °C 34533.8 hPa SW 5.1 km/h 3.7 km/h 83 % 0 mm
02:49 -6.5 °C -8.2 °C 34533.8 hPa WSW 6 km/h 5.6 km/h 83 % 0 mm
02:54 -6.5 °C -8.2 °C 34533.8 hPa WSW 7.6 km/h 6.3 km/h 83 % 0 mm
02:59 -6.4 °C -8.1 °C 34533.8 hPa West 3.7 km/h 3.7 km/h 83 % 0 mm
03:04 -6.4 °C -7.9 °C 34533.8 hPa West 3.1 km/h   85 % 0 mm
03:09 -6.4 °C -7.8 °C 34533.8 hPa NNE 6 km/h 3.7 km/h 85 % 0 mm
03:14 -6.4 °C -7.8 °C 34533.8 hPa Calm     86 % 0 mm
03:19 -6.4 °C -7.8 °C 34533.8 hPa Calm     86 % 0 mm
03:24 -6.4 °C -7.8 °C 34533.8 hPa SE 3.1 km/h   86 % 0 mm
03:29 -6.5 °C -7.8 °C 34533.8 hPa SSW 6 km/h 3.7 km/h 86 % 0 mm
03:34 -6.5 °C -7.8 °C 34533.8 hPa SSW 2.3 km/h   86 % 0 mm
03:39 -6.6 °C -7.9 °C 34533.8 hPa SW 2.3 km/h   86 % 0 mm
03:44 -6.6 °C -7.9 °C 34533.8 hPa Calm     86 % 0 mm
03:49 -6.6 °C -7.9 °C 34533.8 hPa SW 6 km/h 4.2 km/h 86 % 0 mm
03:54 -6.6 °C -7.9 °C 34533.8 hPa SW 5.1 km/h   86 % 0 mm
03:59 -6.7 °C -8 °C 34533.8 hPa SW 3.7 km/h 3.1 km/h 86 % 0 mm
04:04 -6.7 °C -8 °C 34533.8 hPa SW 4.2 km/h   86 % 0 mm
04:09 -6.7 °C -7.9 °C 34533.8 hPa SW 3.7 km/h 3.1 km/h 87 % 0 mm
04:14 -6.7 °C -7.9 °C 34533.8 hPa SW 6 km/h 3.7 km/h 87 % 0 mm
04:19 -6.8 °C -8 °C 34533.8 hPa Calm     87 % 0 mm
04:24 -6.8 °C -7.9 °C 34533.8 hPa Calm     88 % 0 mm
04:29 -6.8 °C -8 °C 34533.8 hPa SW 6 km/h 3.1 km/h 87 % 0 mm
04:34 -6.8 °C -8.1 °C 34533.8 hPa SW 6 km/h 6.3 km/h 87 % 0 mm
04:39 -6.9 °C -8.1 °C 34533.8 hPa SW 3.7 km/h 3.7 km/h 87 % 0 mm
04:44 -6.9 °C -8 °C 34533.8 hPa Calm     88 % 0 mm
04:49 -6.9 °C -8 °C 34533.8 hPa Calm     88 % 0 mm
04:54 -6.9 °C -8 °C 34533.8 hPa Calm     88 % 0 mm
04:59 -6.8 °C -7.9 °C 34533.8 hPa NNE 6.8 km/h 4.2 km/h 88 % 0 mm
05:04 -6.9 °C -8 °C 34500 hPa Calm     88 % 0 mm
05:09 -6.9 °C -8.1 °C 34500 hPa NNE 6 km/h   88 % 0 mm
05:14 -6.9 °C -8.1 °C 34500 hPa Calm     88 % 0 mm
05:19 -6.9 °C -8.1 °C 34500 hPa Calm     88 % 0 mm
05:24 -7 °C -8.2 °C 34500 hPa Calm     88 % 0 mm
05:29 -7 °C -8 °C 34500 hPa Calm     89 % 0 mm
05:34 -7 °C -8.2 °C 34500 hPa Calm     88 % 0 mm
05:39 -7.1 °C -8.2 °C 34500 hPa WSW 3.1 km/h 3.7 km/h 88 % 0 mm
05:44 -7.1 °C -8.2 °C 34500 hPa WSW 3.1 km/h 3.7 km/h 88 % 0 mm
05:49 -7.1 °C -8.2 °C 34533.8 hPa SW 6 km/h 4.2 km/h 88 % 0 mm
05:54 -7.2 °C -8.3 °C 34533.8 hPa SSW 6 km/h 3.1 km/h 88 % 0 mm
05:59 -7.2 °C -8.3 °C 34533.8 hPa SW 6 km/h 4.2 km/h 88 % 0 mm
06:04 -7.1 °C -8.2 °C 34533.8 hPa WSW 3.1 km/h 2.3 km/h 88 % 0 mm
06:09 -6.9 °C -8 °C 34533.8 hPa Calm     89 % 0 mm
06:14 -7 °C -8 °C 34533.8 hPa Calm     89 % 0 mm
06:19 -6.9 °C -8.1 °C 34533.8 hPa SW 9 km/h 6.3 km/h 88 % 0 mm
06:24 -6.9 °C -8 °C 34533.8 hPa WSW 6 km/h 5.1 km/h 89 % 0 mm
06:29 -6.9 °C -8 °C 34533.8 hPa WSW 6 km/h 4.2 km/h 89 % 0 mm
06:34 -6.9 °C -8 °C 34533.8 hPa WSW 6 km/h 3.1 km/h 89 % 0 mm
06:39 -6.9 °C -7.9 °C 34533.8 hPa Calm     90 % 0 mm
06:44 -6.9 °C -8 °C 34533.8 hPa WSW 6 km/h 4.2 km/h 89 % 0 mm
06:49 -6.9 °C -7.9 °C 34500 hPa WSW 6.3 km/h   89 % 0 mm
06:54 -6.9 °C -7.9 °C 34500 hPa WSW 6.3 km/h 4.2 km/h 89 % 0 mm
06:59 -6.9 °C -7.9 °C 34500 hPa WSW 6 km/h 5.1 km/h 89 % 0 mm
07:04 -6.8 °C -7.9 °C 34500 hPa WSW 3.1 km/h   89 % 0 mm
07:09 -6.8 °C -7.9 °C 34500 hPa Calm     89 % 0 mm
07:14 -6.8 °C -7.9 °C 34500 hPa Calm     89 % 0 mm
07:19 -6.9 °C -7.9 °C 34533.8 hPa Calm     89 % 0 mm
07:24 -6.9 °C -7.9 °C 34533.8 hPa Calm     89 % 0 mm
07:29 -6.9 °C -7.9 °C 34533.8 hPa Calm     89 % 0 mm
07:34 -6.9 °C -7.8 °C 34533.8 hPa Calm     90 % 0 mm
07:39 -6.9 °C -7.8 °C 34533.8 hPa Calm     90 % 0 mm
07:44 -6.9 °C -7.9 °C 34533.8 hPa Calm     90 % 0 mm
07:49 -7 °C -8 °C 34533.8 hPa Calm     89 % 0 mm
07:54 -7.1 °C -8.2 °C 34533.8 hPa NNW 3.1 km/h 2.3 km/h 88 % 0 mm
07:59 -7 °C -8.2 °C 34533.8 hPa NW 9 km/h 2.3 km/h 88 % 0 mm
08:04 -6.9 °C -8.2 °C 34533.8 hPa NNW 9 km/h 5.6 km/h 87 % 0 mm
08:09 -6.8 °C -8.2 °C 34533.8 hPa NNW 9 km/h 4.2 km/h 86 % 0 mm
08:14 -6.7 °C -8.1 °C 34533.8 hPa NNW 11.9 km/h 8.5 km/h 86 % 0 mm
08:19 -6.6 °C -8.2 °C 34533.8 hPa NW 9 km/h 7.6 km/h 84 % 0 mm
08:24 -6.5 °C -8.2 °C 34533.8 hPa NNW 9.3 km/h 5.6 km/h 83 % 0 mm
08:29 -6.4 °C -8.2 °C 34533.8 hPa NNE 11.9 km/h 5.1 km/h 82 % 0 mm
08:34 -6.4 °C -8.3 °C 34533.8 hPa WSW 11.9 km/h 3.7 km/h 81 % 0 mm
08:39 -6.4 °C -8.3 °C 34533.8 hPa North 6.3 km/h 3.1 km/h 81 % 0 mm
08:44 -6.4 °C -8.4 °C 34533.8 hPa NW 6 km/h 3.1 km/h 80 % 0 mm
08:49 -6.3 °C -8.4 °C 34567.7 hPa West 6 km/h   79 % 0 mm
08:54 -6.4 °C -8.5 °C 34567.7 hPa NNE 6 km/h 3.1 km/h 79 % 0 mm
08:59 -6.4 °C -8.6 °C 34567.7 hPa NNE 6 km/h 5.1 km/h 78 % 0 mm
09:04 -6.3 °C -8.6 °C 34601.5 hPa NNE 6 km/h 5.1 km/h 78 % 0 mm
09:09 -6.3 °C -8.7 °C 34601.5 hPa WNW 6 km/h 3.1 km/h 77 % 0 mm
09:14 -6.3 °C -8.6 °C 34601.5 hPa NW 3.1 km/h 2.3 km/h 77 % 0 mm
09:19 -6.2 °C -8.7 °C 34601.5 hPa WNW 3.1 km/h   76 % 0 mm
09:24 -6.1 °C -8.6 °C 34601.5 hPa NE 6 km/h 4.2 km/h 76 % 0 mm
09:29 -5.9 °C -8.3 °C 34601.5 hPa ESE 3.1 km/h 2.3 km/h 76 % 0 mm
09:34 -5.7 °C -8.3 °C 34601.5 hPa NNE 9.3 km/h 8.5 km/h 75 % 0 mm
09:39 -5.6 °C -8.2 °C 34601.5 hPa NE 6 km/h 3.1 km/h 74 % 0 mm
09:44 -5.4 °C -8.3 °C 34601.5 hPa North 6 km/h 3.7 km/h 73 % 0 mm
09:49 -5.4 °C -8.3 °C 34601.5 hPa NNE 4.2 km/h   72 % 0 mm
09:54 -5.3 °C -8.3 °C 34601.5 hPa North 7.6 km/h 3.1 km/h 72 % 0 mm
09:59 -5.2 °C -8.3 °C 34601.5 hPa NNE 8.5 km/h 5.1 km/h 71 % 0 mm
10:04 -5.1 °C -8.2 °C 34601.5 hPa NW 6 km/h 3.7 km/h 71 % 0 mm
10:09 -5.1 °C -8.3 °C 34601.5 hPa NNW 5.1 km/h 5.1 km/h 70 % 0 mm
10:14 -5.2 °C -8.4 °C 34601.5 hPa WNW 9 km/h 4.2 km/h 70 % 0 mm
10:19 -5.2 °C -8.4 °C 34601.5 hPa WNW 6 km/h   70 % 0 mm
10:24 -5.2 °C -8.5 °C 34601.5 hPa WSW 5.6 km/h 3.7 km/h 69 % 0 mm
10:29 -5.2 °C -8.4 °C 34601.5 hPa WSW 6 km/h 3.7 km/h 70 % 0 mm
10:34 -5.1 °C -8.4 °C 34601.5 hPa SW 6 km/h 5.1 km/h 69 % 0 mm
10:39 -5 °C -8.3 °C 34601.5 hPa NW 6 km/h 3.7 km/h 69 % 0 mm
10:44 -4.8 °C -8.1 °C 34601.5 hPa North 3.1 km/h 2.3 km/h 69 % 0 mm
10:49 -4.8 °C -8.4 °C 34635.4 hPa WSW 3.1 km/h 3.1 km/h 67 % 0 mm
10:54 -4.8 °C -8.2 °C 34635.4 hPa SSW 6 km/h 5.6 km/h 68 % 0 mm
10:59 -4.7 °C -8.3 °C 34635.4 hPa SW 6 km/h   67 % 0 mm
11:04 -4.6 °C -8.4 °C 34601.5 hPa SW 3.1 km/h   66 % 0 mm
11:09 -4.7 °C -8.4 °C 34601.5 hPa SW 6 km/h 3.1 km/h 66 % 0 mm
11:14 -4.6 °C -8.3 °C 34601.5 hPa SW 3.7 km/h   66 % 0 mm
11:19 -4.6 °C -8.4 °C 34635.4 hPa WSW 9 km/h 5.1 km/h 66 % 0 mm
11:24 -4.3 °C -8 °C 34635.4 hPa WSW 6.3 km/h 5.1 km/h 66 % 0 mm
11:29 -4.3 °C -8 °C 34635.4 hPa WNW 6 km/h   66 % 0 mm
11:34 -4 °C -7.9 °C 34601.5 hPa West 6 km/h 3.1 km/h 65 % 0 mm
11:39 -3.7 °C -7.9 °C 34601.5 hPa SSE 6.8 km/h 3.7 km/h 63 % 0 mm
11:44 -3.6 °C -7.9 °C 34601.5 hPa ENE 4.2 km/h 4.2 km/h 62 % 0 mm
11:49 -3.6 °C -8.1 °C 34601.5 hPa SE 9.8 km/h 6.8 km/h 61 % 0 mm
11:54 -3.5 °C -7.8 °C 34601.5 hPa SE 6.3 km/h 2.3 km/h 62 % 0 mm
11:59 -3.2 °C -7.7 °C 34601.5 hPa SSE 6 km/h 4.2 km/h 61 % 0 mm
12:04 -3.4 °C -8.2 °C 34635.4 hPa SSW 11.9 km/h 9.3 km/h 59 % 0 mm
12:09 -3.2 °C -7.7 °C 34635.4 hPa SW 6 km/h 3.1 km/h 61 % 0 mm
12:14 -3.1 °C -7.6 °C 34635.4 hPa SW 9 km/h 5.6 km/h 61 % 0 mm
12:19 -3.2 °C -7.8 °C 34635.4 hPa SE 9 km/h 8.5 km/h 60 % 0 mm
12:24 -3.2 °C -7.7 °C 34635.4 hPa South 6 km/h 3.7 km/h 61 % 0 mm
12:29 -3.2 °C -7.7 °C 34635.4 hPa SSW 11.9 km/h 2.3 km/h 61 % 0 mm
12:34 -3.1 °C -7.6 °C 34601.5 hPa SSE 4.2 km/h 4.2 km/h 61 % 0 mm
12:35 -3.1 °C -7.6 °C 34601.5 hPa SSE 6 km/h 4.2 km/h 61 % 0 mm
12:44 -3.4 °C -7.9 °C 34601.5 hPa ENE 6.8 km/h 3.7 km/h 61 % 0 mm
12:49 -3.6 °C -8.1 °C 34601.5 hPa SE 8 km/h 5.1 km/h 61 % 0 mm
12:54 -3.5 °C -7.8 °C 34601.5 hPa ESE 6 km/h 3.7 km/h 62 % 0 mm
12:59 -3.6 °C -7.9 °C 34601.5 hPa NNE 9 km/h 9.3 km/h 62 % 0 mm
13:04 -3.6 °C -7.9 °C 34601.5 hPa Calm     62 % 0 mm
13:09 -3.4 °C -7.8 °C 34601.5 hPa ESE 11.9 km/h 6.3 km/h 62 % 0 mm
13:14 -3.3 °C -7.7 °C 34601.5 hPa ESE 9 km/h 5.1 km/h 62 % 0 mm
13:19 -3.4 °C -7.9 °C 34601.5 hPa SSE 11.9 km/h 6.3 km/h 61 % 0 mm
13:24 -3 °C -7.4 °C 34601.5 hPa ESE 11.9 km/h 6.3 km/h 62 % 0 mm
Meteo Sesrovires
Compliments of Weather Underground - 1.25 mb

Script developed by  Jim McMurry - jmcmurry@mwt.net Adapted for the template by  Wim van der Kuil - Leuven-Template.eu

You find our weather info also at:

Weather Underground

AWEKAS